»·PEaware :: SKY525 KSBP-KOAR

SKY525 :: KSBP-KOAR

FLIGHT INFORMATION

Flight Status: Arrived
Operator:
Skymark Airlines
More flights by this operator :: More flights under this callsign
Pilot: Kim B. (19519)
Aircraft: DORNIER 228
(D228)
More flights by this aircraft type
Origin: KSBP San Luis Co Regl
United States
Destination: KOAR Marina
United States
More flights between these airports :: More routes between these airports
Route: CREPE3 PRB V248 SNS
File this flight plan on PilotEdge
Remarks: SKY-4
Altitude:
(Current/Filed)
8,000ft
Speed:
(Current/Filed)
190kts
Departed: 04-Nov-18 12:36 PM
Arrived: 04-Nov-18 01:18 PM
Distance/Time
Traveled:
102nm/0:42
Distance/Time
To Go:
Arrived

Flight Plot

Page will automatically refresh every two minutes.

Flight plan parsing failed; only flown route is shown


Map Options




Map Legend


Flown Route
Filed Route
Departure Airport
Arrival Airport
Navaid (VOR, NDB)
Fix

Horizontal Profiles

Position Reports

Time Latitude Longitude Heading Altitude Ground
Speed
04-Nov-18 11:59 35.237915 -120.638615 270 188ft 0kts
04-Nov-18 11:59 35.237915 -120.638615 270 188ft 0kts
04-Nov-18 12:01 35.237915 -120.638615 270 188ft 0kts
04-Nov-18 12:01 35.237915 -120.638615 270 188ft 0kts
04-Nov-18 12:02 35.237915 -120.638615 270 188ft 0kts
04-Nov-18 12:03 35.237915 -120.638615 270 188ft 0kts
04-Nov-18 12:04 35.237915 -120.638615 270 188ft 0kts
04-Nov-18 12:05 35.237915 -120.638615 270 188ft 0kts
04-Nov-18 12:06 35.237915 -120.638615 270 188ft 0kts
04-Nov-18 12:07 35.237915 -120.638615 270 188ft 0kts
04-Nov-18 12:08 35.237915 -120.638615 270 188ft 0kts
04-Nov-18 12:09 35.237915 -120.638615 270 188ft 0kts
04-Nov-18 12:10 35.237915 -120.638615 270 188ft 0kts
04-Nov-18 12:11 35.237915 -120.638615 270 188ft 0kts
04-Nov-18 12:12 35.237915 -120.638615 270 188ft 0kts
04-Nov-18 12:13 35.237915 -120.638615 270 188ft 0kts
04-Nov-18 12:15 35.237915 -120.638615 270 188ft 0kts
04-Nov-18 12:16 35.237915 -120.638615 270 188ft 0kts
04-Nov-18 12:17 35.237915 -120.638615 270 188ft 0kts
04-Nov-18 12:18 35.237915 -120.638615 270 188ft 0kts
04-Nov-18 12:19 35.237915 -120.638615 270 188ft 0kts
04-Nov-18 12:20 35.237915 -120.638615 270 188ft 0kts
04-Nov-18 12:21 35.237915 -120.638615 270 188ft 0kts
04-Nov-18 12:22 35.237915 -120.638615 270 188ft 0kts
04-Nov-18 12:23 35.237915 -120.638615 270 188ft 0kts
04-Nov-18 12:24 35.237915 -120.638615 270 188ft 0kts
04-Nov-18 12:25 35.237915 -120.638615 270 188ft 0kts
04-Nov-18 12:26 35.237915 -120.638615 270 188ft 0kts
04-Nov-18 12:27 35.237915 -120.638615 270 188ft 0kts
04-Nov-18 12:28 35.237915 -120.638615 270 188ft 0kts
04-Nov-18 12:29 35.237915 -120.638615 270 188ft 0kts
04-Nov-18 12:30 35.237915 -120.638615 270 188ft 0kts
04-Nov-18 12:31 35.237915 -120.638615 270 188ft 0kts
04-Nov-18 12:32 35.237915 -120.638615 270 188ft 0kts
04-Nov-18 12:33 35.237915 -120.638615 270 188ft 0kts
04-Nov-18 12:34 35.237915 -120.638615 270 188ft 0kts
04-Nov-18 12:35 35.236697 -120.637975 124 188ft 27kts
04-Nov-18 12:36 35.233217 -120.632407 202 188ft 0kts
04-Nov-18 12:37 35.233217 -120.632407 202 188ft 0kts
04-Nov-18 12:38 35.232804 -120.633070 299 188ft 13kts
04-Nov-18 12:39 35.246473 -120.657593 301 1265ft 107kts
04-Nov-18 12:40 35.262005 -120.690108 301 2863ft 113kts
04-Nov-18 12:41 35.277818 -120.723321 301 4334ft 114kts
04-Nov-18 12:42 35.293863 -120.757069 301 5661ft 116kts
04-Nov-18 12:43 35.310426 -120.791865 301 7252ft 120kts
04-Nov-18 12:44 35.328608 -120.829796 301 8015ft 166kts
04-Nov-18 12:45 35.355054 -120.882196 319 7987ft 188kts
04-Nov-18 12:46 35.402782 -120.860627 30 8011ft 200kts
04-Nov-18 12:47 35.444281 -120.813990 38 8023ft 202kts
04-Nov-18 12:48 35.488561 -120.771736 31 8037ft 205kts
04-Nov-18 12:49 35.536576 -120.732587 30 8046ft 208kts
04-Nov-18 12:50 35.586388 -120.700855 35 8048ft 208kts
04-Nov-18 12:51 35.633468 -120.659489 31 8045ft 207kts
04-Nov-18 12:52 35.681690 -120.621091 10 8021ft 205kts
04-Nov-18 12:53 35.731162 -120.649428 325 8045ft 202kts
04-Nov-18 12:54 35.783627 -120.672205 341 8045ft 203kts
04-Nov-18 12:55 35.837935 -120.693855 341 8045ft 206kts
04-Nov-18 12:56 35.892417 -120.715704 341 8045ft 206kts
04-Nov-18 12:57 35.946768 -120.737559 341 8043ft 204kts
04-Nov-18 12:58 36.000111 -120.759044 341 8044ft 201kts
04-Nov-18 12:59 36.053254 -120.780651 341 8044ft 201kts
04-Nov-18 13:00 36.104743 -120.806362 310 8038ft 205kts
04-Nov-18 13:01 36.141086 -120.860577 311 8046ft 206kts
04-Nov-18 13:02 36.178606 -120.914177 312 8046ft 206kts
04-Nov-18 13:03 36.216448 -120.967596 312 8046ft 206kts
04-Nov-18 13:04 36.254270 -121.020860 312 8046ft 206kts
04-Nov-18 13:05 36.290976 -121.072570 311 8046ft 205kts
04-Nov-18 13:06 36.328578 -121.125698 311 8028ft 205kts
04-Nov-18 13:07 36.365765 -121.178296 311 8033ft 202kts
04-Nov-18 13:08 36.402789 -121.230738 311 8036ft 202kts
04-Nov-18 13:09 36.439624 -121.283160 308 8033ft 202kts
04-Nov-18 13:10 36.486913 -121.302208 4 8036ft 207kts
04-Nov-18 13:11 36.525192 -121.348154 305 7304ft 199kts
04-Nov-18 13:12 36.555286 -121.402919 304 6085ft 185kts
04-Nov-18 13:13 36.583494 -121.454796 304 4876ft 180kts
04-Nov-18 13:14 36.611269 -121.505967 304 3836ft 171kts
04-Nov-18 13:15 36.634557 -121.548741 304 3142ft 126kts
04-Nov-18 13:16 36.652699 -121.580901 306 2937ft 111kts
04-Nov-18 13:17 36.662821 -121.619086 288 2527ft 130kts
04-Nov-18 13:18 36.670772 -121.663764 279 1531ft 134kts
04-Nov-18 13:19 36.674902 -121.709470 277 733ft 124kts
04-Nov-18 13:20 36.672168 -121.744724 278 563ft 93kts
04-Nov-18 13:21 36.681489 -121.762697 213 140ft 11kts
04-Nov-18 13:22 36.680425 -121.763726 298 140ft 10kts
04-Nov-18 13:23 36.680191 -121.763985 123 140ft 0kts
04-Nov-18 13:24 36.680191 -121.763985 123 140ft 0kts
04-Nov-18 13:25 36.680191 -121.763985 123 140ft 0kts
04-Nov-18 13:26 36.680191 -121.763985 123 140ft 0kts
04-Nov-18 13:27 36.680191 -121.763985 123 140ft 0kts
04-Nov-18 13:28 36.680191 -121.763985 123 140ft 0kts
04-Nov-18 13:29 36.680191 -121.763985 123 140ft 0kts
04-Nov-18 13:30 36.680191 -121.763985 123 140ft 0kts
04-Nov-18 13:31 36.680191 -121.763985 123 140ft 0kts
04-Nov-18 13:32 36.680191 -121.763985 123 140ft 0kts
04-Nov-18 13:33 36.680191 -121.763985 123 140ft 0kts
04-Nov-18 13:34 36.680191 -121.763985 123 140ft 0kts
04-Nov-18 13:35 36.680191 -121.763985 123 140ft 0kts
04-Nov-18 13:36 36.680191 -121.763985 123 140ft 0kts

Navigation Log

Ident Type
Flight plan parsing failed, navigation log unavailable